Time;durP1;ratioP1;P1;durP2;ratioP2;P2;SDS_P1;SDS_P2;PMS_P1;PMS_P2;Temp;Humidity;BMP_temperature;BMP_pressure;BME280_temperature;BME280_humidity;BME280_pressure;Samples;Min_cycle;Max_cycle;Signal;HPM_P1;HPM_P2
2021/09/08 00:02:22;;;;;;;0.30;0.30;;;;;;;23.54;44.41;95225.16;5014954;28;104625;-62
2021/09/08 00:04:48;;;;;;;0.40;0.40;;;;;;;23.52;44.21;95217.31;5015961;28;99395;-63
2021/09/08 00:07:13;;;;;;;0.50;0.50;;;;;;;23.51;44.39;95231.50;5015486;28;96958;-62
2021/09/08 00:09:38;;;;;;;0.75;0.40;;;;;;;23.50;44.30;95218.91;5015267;28;96936;-62
2021/09/08 00:12:04;;;;;;;0.43;0.43;;;;;;;23.49;44.12;95223.66;5014899;28;98889;-63
2021/09/08 00:14:30;;;;;;;0.50;0.50;;;;;;;23.50;44.26;95216.94;5015260;28;99258;-62
2021/09/08 00:16:55;;;;;;;0.50;0.50;;;;;;;23.48;44.42;95221.28;5015269;28;96647;-63
2021/09/08 00:19:21;;;;;;;0.60;0.40;;;;;;;23.53;44.25;95215.34;5015445;28;97060;-62
2021/09/08 00:21:46;;;;;;;0.35;0.35;;;;;;;23.52;44.08;95205.50;5015295;28;97404;-62
2021/09/08 00:24:12;;;;;;;0.50;0.50;;;;;;;23.50;43.80;95207.88;5014569;28;99052;-63
2021/09/08 00:26:37;;;;;;;0.43;0.43;;;;;;;23.45;44.16;95214.63;5015348;28;96719;-61
2021/09/08 00:29:02;;;;;;;0.40;0.40;;;;;;;23.50;44.16;95213.38;5015688;28;96888;-62
2021/09/08 00:31:28;;;;;;;0.30;0.30;;;;;;;23.46;43.98;95201.59;5014843;28;97096;-62
2021/09/08 00:33:53;;;;;;;0.35;0.35;;;;;;;23.46;44.07;95213.41;5015018;28;99425;-62
2021/09/08 00:36:19;;;;;;;0.50;0.50;;;;;;;23.49;44.03;95209.06;5013802;28;96916;-63
2021/09/08 00:38:44;;;;;;;0.40;0.40;;;;;;;23.48;44.02;95215.75;5015146;28;97755;-63
2021/09/08 00:41:09;;;;;;;0.35;0.35;;;;;;;23.45;44.11;95222.09;5014725;28;99330;-62
2021/09/08 00:43:35;;;;;;;0.38;0.38;;;;;;;23.45;44.00;95211.06;5014705;28;98634;-62
2021/09/08 00:46:00;;;;;;;0.40;0.40;;;;;;;23.37;43.92;95200.06;5014785;28;97069;-63
2021/09/08 00:48:26;;;;;;;0.40;0.40;;;;;;;23.45;44.09;95205.53;5015414;28;96880;-62
2021/09/08 00:50:51;;;;;;;0.50;0.50;;;;;;;23.47;43.89;95198.44;5014521;28;99923;-62
2021/09/08 00:53:18;;;;;;;0.40;0.40;;;;;;;23.47;44.03;95198.44;5014942;28;99151;-62
2021/09/08 00:55:44;;;;;;;0.50;0.50;;;;;;;23.46;43.94;95202.41;5014812;28;96701;-62
2021/09/08 00:58:10;;;;;;;0.60;0.60;;;;;;;23.42;43.94;95192.56;5015282;28;97307;-63
2021/09/08 01:00:36;;;;;;;0.45;0.45;;;;;;;23.48;43.83;95199.22;5013861;28;99906;-62
2021/09/08 01:03:01;;;;;;;0.55;0.50;;;;;;;23.45;43.86;95200.03;5013152;28;99273;-61
2021/09/08 01:05:26;;;;;;;0.60;0.60;;;;;;;23.43;43.80;95196.91;5014558;28;96799;-63
2021/09/08 01:07:52;;;;;;;0.35;0.35;;;;;;;23.41;43.94;95200.06;5014596;28;97243;-62
2021/09/08 01:10:17;;;;;;;0.50;0.50;;;;;;;23.48;43.81;95190.94;5013977;28;98950;-62
2021/09/08 01:12:43;;;;;;;0.50;0.50;;;;;;;23.43;43.96;95205.16;5014193;28;98831;-62
2021/09/08 01:15:09;;;;;;;0.65;0.65;;;;;;;23.42;43.88;95198.09;4996451;28;96740;-62
2021/09/08 01:17:34;;;;;;;0.90;0.60;;;;;;;23.43;43.82;95202.41;5014808;28;96918;-62
2021/09/08 01:20:00;;;;;;;0.43;0.43;;;;;;;23.46;43.79;95201.59;5014252;28;99434;-62
2021/09/08 01:22:29;;;;;;;0.63;0.63;;;;;;;23.39;43.64;95200.47;5014290;28;98993;-62
2021/09/08 01:24:55;;;;;;;0.50;0.50;;;;;;;23.45;43.84;95200.03;5013809;28;96899;-62
2021/09/08 01:27:20;;;;;;;0.68;0.60;;;;;;;23.44;43.84;95204.78;5014224;28;96974;-62
2021/09/08 01:29:46;;;;;;;0.60;0.60;;;;;;;23.46;43.65;95201.59;5013683;28;103888;-61
2021/09/08 01:32:11;;;;;;;0.50;0.50;;;;;;;23.41;43.94;95199.28;5013828;28;104729;-62
2021/09/08 01:34:36;;;;;;;1.27;0.65;;;;;;;23.44;43.62;95193.75;5014185;28;96690;-62
2021/09/08 01:37:02;;;;;;;0.40;0.40;;;;;;;23.44;43.67;95198.47;5013907;28;96919;-61
2021/09/08 01:39:27;;;;;;;0.50;0.50;;;;;;;23.43;43.74;95196.91;5013671;28;100163;-62
2021/09/08 01:41:53;;;;;;;0.60;0.60;;;;;;;23.40;43.81;95187.47;5014496;28;99831;-62
2021/09/08 01:44:22;;;;;;;0.40;0.40;;;;;;;23.39;43.98;95194.19;5013883;28;96768;-61
2021/09/08 01:46:51;;;;;;;0.50;0.50;;;;;;;23.37;43.87;95197.31;5014166;28;96929;-61
2021/09/08 01:49:17;;;;;;;0.60;0.60;;;;;;;23.37;43.62;95197.31;5013281;28;99540;-62
2021/09/08 01:51:42;;;;;;;0.40;0.40;;;;;;;23.41;43.67;95202.03;5013710;28;99558;-62
2021/09/08 01:54:08;;;;;;;0.35;0.35;;;;;;;23.39;43.83;95194.94;5013715;28;96851;-62
2021/09/08 01:56:33;;;;;;;0.40;0.40;;;;;;;23.37;43.91;95197.31;5014016;28;96972;-61
2021/09/08 01:58:59;;;;;;;0.43;0.43;;;;;;;23.35;43.75;95194.19;5013509;28;99678;-62
2021/09/08 02:01:25;;;;;;;0.50;0.50;;;;;;;23.37;43.87;95193.78;5014102;28;97399;-62
2021/09/08 02:03:51;;;;;;;0.50;0.50;;;;;;;23.36;43.92;95206.78;5013868;28;96666;-64
2021/09/08 02:06:25;;;;;;;0.22;0.22;;;;;;;23.42;43.64;95211.88;5014228;28;96780;-62
2021/09/08 02:08:51;;;;;;;0.40;0.38;;;;;;;23.43;43.62;95203.22;5013238;28;100838;-64
2021/09/08 02:11:17;;;;;;;0.30;0.30;;;;;;;23.39;43.40;95203.22;5013350;28;99373;-62
2021/09/08 02:13:42;;;;;;;0.30;0.30;;;;;;;23.37;43.80;95200.06;5012632;28;96847;-62
2021/09/08 02:16:08;;;;;;;0.30;0.30;;;;;;;23.43;43.56;95205.16;5013568;28;96995;-63
2021/09/08 02:18:33;;;;;;;0.30;0.30;;;;;;;23.41;43.61;95200.06;5013262;28;99379;-62
2021/09/08 02:20:59;;;;;;;0.32;0.32;;;;;;;23.41;43.68;95200.06;5013510;28;99186;-64
2021/09/08 02:23:24;;;;;;;0.40;0.40;;;;;;;23.42;43.72;95184.31;5013547;28;96690;-62
2021/09/08 02:25:50;;;;;;;0.28;0.28;;;;;;;23.36;43.82;95176.47;5013589;28;96883;-64
2021/09/08 02:28:20;;;;;;;0.40;0.40;;;;;;;23.38;43.60;95173.31;5012884;28;99294;-62
2021/09/08 02:30:45;;;;;;;0.40;0.40;;;;;;;23.38;43.54;95201.66;5013549;28;99557;-62
2021/09/08 02:33:11;;;;;;;4.18;3.78;;;;;;;23.32;43.54;95195.00;5013685;28;96858;-61
2021/09/08 02:35:36;;;;;;;6.15;3.55;;;;;;;23.35;43.92;95191.44;5012850;28;96885;-62
2021/09/08 02:38:01;;;;;;;2.90;2.70;;;;;;;23.39;44.00;95192.19;5012633;28;99435;-62
2021/09/08 02:40:27;;;;;;;3.17;2.88;;;;;;;23.44;43.79;95198.47;5013405;28;99343;-62
2021/09/08 02:42:52;;;;;;;3.38;2.75;;;;;;;23.46;43.92;95188.63;5013411;28;96604;-62
2021/09/08 02:45:18;;;;;;;3.63;2.70;;;;;;;23.47;43.91;95187.44;5013200;28;97020;-62
2021/09/08 02:47:43;;;;;;;2.33;2.08;;;;;;;23.49;44.26;95189.75;5012837;28;102639;-61
2021/09/08 02:50:09;;;;;;;2.70;2.50;;;;;;;23.50;43.92;95191.31;5012989;28;100190;-61
2021/09/08 02:52:35;;;;;;;2.65;1.98;;;;;;;23.48;44.18;95182.69;5012999;28;96672;-62
2021/09/08 02:55:00;;;;;;;2.05;1.95;;;;;;;23.51;44.01;95187.38;5013458;28;96901;-61
2021/09/08 02:57:25;;;;;;;3.65;1.88;;;;;;;23.51;44.12;95187.38;4995016;28;101359;-62
2021/09/08 02:59:51;;;;;;;1.90;1.75;;;;;;;23.52;44.47;95194.47;5012772;28;98882;-64
2021/09/08 03:02:16;;;;;;;1.75;1.65;;;;;;;23.50;44.51;95183.06;5011927;28;96981;-61
2021/09/08 03:04:42;;;;;;;1.63;1.52;;;;;;;23.53;44.38;95185.00;5010963;28;96985;-61
2021/09/08 03:07:07;;;;;;;1.50;1.40;;;;;;;23.55;44.20;95193.66;5011072;28;99050;-64
2021/09/08 03:09:32;;;;;;;1.40;1.30;;;;;;;23.54;44.48;95181.06;5013020;28;97681;-62
2021/09/08 03:11:58;;;;;;;1.40;1.30;;;;;;;23.57;44.37;95185.75;5012892;28;96913;-61
2021/09/08 03:14:23;;;;;;;1.17;1.17;;;;;;;23.52;44.57;95178.72;5012436;28;96894;-60
2021/09/08 03:16:49;;;;;;;1.52;1.42;;;;;;;23.56;44.76;95178.69;5010622;28;98508;-61
2021/09/08 03:19:14;;;;;;;1.00;1.00;;;;;;;23.55;44.45;95182.63;5011066;28;100658;-63
2021/09/08 03:21:40;;;;;;;1.55;1.30;;;;;;;23.55;44.65;95179.88;5011285;28;96766;-63
2021/09/08 03:24:05;;;;;;;1.30;1.20;;;;;;;23.53;44.74;95185.00;5011249;28;96896;-61
2021/09/08 03:26:30;;;;;;;1.15;1.13;;;;;;;23.49;44.75;95173.22;5009449;28;99601;-63
2021/09/08 03:28:56;;;;;;;1.20;1.10;;;;;;;23.52;44.69;95180.69;5010714;28;98927;-62
2021/09/08 03:31:21;;;;;;;0.90;0.90;;;;;;;23.55;44.69;95182.63;4994314;28;96764;-61
2021/09/08 03:33:47;;;;;;;0.80;0.80;;;;;;;23.57;44.56;95183.00;5012557;28;96878;-62
2021/09/08 03:36:12;;;;;;;1.00;0.95;;;;;;;23.55;44.67;95182.63;5011845;28;99297;-61
2021/09/08 03:38:37;;;;;;;1.30;1.20;;;;;;;23.53;44.80;95185.81;5012098;28;99236;-61
2021/09/08 03:41:03;;;;;;;0.88;0.88;;;;;;;23.54;44.80;95186.56;5012596;28;96656;-61
2021/09/08 03:43:28;;;;;;;1.42;1.33;;;;;;;23.53;44.73;95190.53;5012856;28;96933;-61
2021/09/08 03:45:54;;;;;;;1.00;1.00;;;;;;;23.47;44.90;95186.63;5012149;28;101339;-62
2021/09/08 03:48:19;;;;;;;0.82;0.82;;;;;;;23.54;44.85;95181.06;5012209;28;100825;-61
2021/09/08 03:50:45;;;;;;;0.93;0.93;;;;;;;23.53;45.20;95187.75;5011999;28;96589;-63
2021/09/08 03:53:10;;;;;;;0.77;0.77;;;;;;;23.54;44.79;95190.13;5012201;28;96890;-61
2021/09/08 03:55:35;;;;;;;1.45;1.05;;;;;;;23.52;44.94;95183.44;5011791;28;108191;-62
2021/09/08 03:58:01;;;;;;;0.90;0.90;;;;;;;23.53;44.91;95185.00;5012095;28;99178;-62
2021/09/08 04:00:26;;;;;;;1.10;1.00;;;;;;;23.51;45.15;95192.91;5012303;28;96618;-62
2021/09/08 04:02:52;;;;;;;1.10;1.10;;;;;;;23.52;45.20;95188.94;5012559;28;97370;-62
2021/09/08 04:05:17;;;;;;;0.82;0.80;;;;;;;23.53;45.19;95188.56;5012001;28;104031;-62
2021/09/08 04:07:42;;;;;;;0.88;0.88;;;;;;;23.58;45.06;95190.09;5012211;28;102828;-62
2021/09/08 04:10:08;;;;;;;0.82;0.82;;;;;;;23.57;45.08;95185.75;5012038;28;96820;-62
2021/09/08 04:12:34;;;;;;;0.90;0.90;;;;;;;23.56;45.14;95189.72;5012282;28;97019;-64
2021/09/08 04:14:59;;;;;;;0.70;0.70;;;;;;;23.57;45.14;95196.00;5011410;28;99396;-62
2021/09/08 04:17:25;;;;;;;0.90;0.90;;;;;;;23.57;45.04;95188.53;5011908;28;99042;-64
2021/09/08 04:19:50;;;;;;;0.70;0.70;;;;;;;23.59;45.12;95177.88;5012148;28;96774;-61
2021/09/08 04:22:16;;;;;;;0.80;0.80;;;;;;;23.54;45.12;95181.84;5012080;28;96947;-61
2021/09/08 04:24:42;;;;;;;0.90;0.90;;;;;;;23.56;45.19;95184.19;5011599;28;99457;-64
2021/09/08 04:27:07;;;;;;;0.65;0.63;;;;;;;23.56;45.32;95184.19;4994050;28;99253;-61
2021/09/08 04:29:32;;;;;;;1.00;1.00;;;;;;;23.57;45.06;95188.53;5012269;28;96672;-62
2021/09/08 04:31:58;;;;;;;0.90;0.90;;;;;;;23.57;45.24;95191.28;5012421;28;96925;-63
2021/09/08 04:34:23;;;;;;;0.60;0.60;;;;;;;23.58;45.27;95178.25;5011647;28;99154;-61
2021/09/08 04:36:49;;;;;;;0.70;0.70;;;;;;;23.58;45.17;95187.34;5011793;28;100777;-60
2021/09/08 04:39:14;;;;;;;0.80;0.80;;;;;;;23.61;45.22;95181.00;5014822;28;96695;-61
2021/09/08 04:41:39;;;;;;;0.70;0.70;;;;;;;23.63;45.16;95186.09;5015123;28;96830;-61
2021/09/08 04:44:05;;;;;;;0.70;0.70;;;;;;;23.63;45.21;95189.66;5015023;28;99716;-60
2021/09/08 04:46:30;;;;;;;0.70;0.70;;;;;;;23.59;45.37;95188.91;5014940;28;99442;-58
2021/09/08 04:48:56;;;;;;;0.70;0.70;;;;;;;23.61;45.47;95191.25;5015251;28;96772;-61
2021/09/08 04:51:22;;;;;;;0.70;0.70;;;;;;;23.63;45.38;95195.16;5015014;28;96941;-59
2021/09/08 04:53:47;;;;;;;0.60;0.60;;;;;;;23.60;45.38;95193.22;5014834;28;99495;-62
2021/09/08 04:56:13;;;;;;;0.80;0.80;;;;;;;23.64;45.52;95201.47;5014880;28;98664;-62
2021/09/08 04:58:38;;;;;;;0.70;0.70;;;;;;;23.64;45.42;95199.50;5015272;28;96752;-60
2021/09/08 05:01:04;;;;;;;0.60;0.60;;;;;;;23.68;45.29;95197.50;5014587;28;97056;-61
2021/09/08 05:03:31;;;;;;;0.70;0.70;;;;;;;23.65;45.36;95198.31;5014087;28;99493;-63
2021/09/08 05:05:57;;;;;;;0.70;0.70;;;;;;;23.64;45.59;95196.75;5014589;28;99363;-61
2021/09/08 05:08:22;;;;;;;0.45;0.45;;;;;;;23.64;45.62;95193.97;5015907;28;96619;-61
2021/09/08 05:10:48;;;;;;;1.52;0.77;;;;;;;23.65;45.50;95192.78;5015631;28;97064;-60
2021/09/08 05:13:13;;;;;;;0.70;0.70;;;;;;;23.61;45.41;95192.03;5014823;28;97811;-63
2021/09/08 05:15:39;;;;;;;0.68;0.68;;;;;;;23.65;45.90;95198.31;5014607;28;99520;-61
2021/09/08 05:18:04;;;;;;;0.57;0.57;;;;;;;23.67;45.60;95204.19;5014999;28;96890;-63
2021/09/08 05:20:30;;;;;;;0.60;0.60;;;;;;;23.69;45.48;95204.56;5015277;28;96793;-61
2021/09/08 05:22:55;;;;;;;0.57;0.57;;;;;;;23.69;45.81;95196.31;5014544;28;97935;-61
2021/09/08 05:25:20;;;;;;;0.60;0.60;;;;;;;23.75;45.50;95207.66;5014343;28;99224;-61
2021/09/08 05:27:46;;;;;;;2.45;0.70;;;;;;;23.69;45.54;95199.06;5014233;28;96682;-64
2021/09/08 05:30:11;;;;;;;0.68;0.68;;;;;;;23.72;45.41;95204.97;5014655;28;96901;-63
2021/09/08 05:32:38;;;;;;;0.60;0.60;;;;;;;23.69;45.41;95199.06;5014172;28;100483;-61
2021/09/08 05:35:03;;;;;;;0.95;0.70;;;;;;;23.72;45.47;95210.47;5014097;28;99303;-63
2021/09/08 05:37:29;;;;;;;0.60;0.60;;;;;;;23.73;45.59;95203.75;5014110;28;97002;-62
2021/09/08 05:39:54;;;;;;;0.50;0.50;;;;;;;23.74;45.49;95205.34;5014659;28;96833;-61
2021/09/08 05:42:20;;;;;;;0.60;0.60;;;;;;;23.74;45.38;95203.34;5014186;28;98052;-61
2021/09/08 05:44:45;;;;;;;0.50;0.50;;;;;;;23.75;45.41;95198.63;5014284;28;99323;-61
2021/09/08 05:47:11;;;;;;;0.57;0.57;;;;;;;23.75;45.81;95198.63;5014441;28;96784;-61
2021/09/08 05:49:36;;;;;;;0.45;0.45;;;;;;;23.79;45.30;95188.34;5013750;28;96976;-61
2021/09/08 05:52:02;;;;;;;0.50;0.50;;;;;;;23.74;45.61;95199.81;5013407;28;98320;-60
2021/09/08 05:54:28;;;;;;;0.47;0.47;;;;;;;23.78;45.38;95186.78;5013731;28;99260;-61
2021/09/08 05:56:53;;;;;;;0.50;0.50;;;;;;;23.76;45.52;95197.44;5014388;28;96590;-61
2021/09/08 05:59:19;;;;;;;0.52;0.52;;;;;;;23.75;45.46;95193.13;5014064;28;96963;-60
2021/09/08 06:01:44;;;;;;;0.50;0.50;;;;;;;23.75;45.56;95195.88;5013694;28;105211;-61
2021/09/08 06:04:10;;;;;;;0.60;0.60;;;;;;;23.71;45.45;95173.06;5013845;28;98737;-60
2021/09/08 06:06:35;;;;;;;0.60;0.60;;;;;;;23.80;45.53;95187.16;5013990;28;96584;-60
2021/09/08 06:09:00;;;;;;;0.52;0.52;;;;;;;23.78;45.77;95179.28;5014255;28;96928;-61
2021/09/08 06:11:26;;;;;;;0.50;0.50;;;;;;;23.75;45.45;95185.59;5013432;28;99416;-61
2021/09/08 06:13:53;;;;;;;0.50;0.50;;;;;;;23.75;45.70;95180.09;5013678;28;98739;-61
2021/09/08 06:16:20;;;;;;;0.52;0.50;;;;;;;23.77;45.58;95179.69;5013326;28;96759;-60
2021/09/08 06:18:46;;;;;;;0.95;0.50;;;;;;;23.81;45.70;95183.22;5013859;28;97004;-63
2021/09/08 06:21:11;;;;;;;0.40;0.40;;;;;;;23.82;45.61;95184.78;5013604;28;104574;-60
2021/09/08 06:23:37;;;;;;;0.40;0.40;;;;;;;23.83;45.53;95178.84;5013468;28;99676;-61
2021/09/08 06:26:02;;;;;;;0.60;0.60;;;;;;;23.79;45.65;95185.59;5013419;28;97599;-61
2021/09/08 06:28:29;;;;;;;0.55;0.55;;;;;;;23.68;45.56;95167.16;5013610;28;96905;-62
2021/09/08 06:30:55;;;;;;;0.50;0.50;;;;;;;23.82;45.55;95184.78;5013188;28;100083;-63
2021/09/08 06:33:21;;;;;;;0.40;0.40;;;;;;;23.82;45.54;95190.28;5013570;28;99247;-64
2021/09/08 06:35:46;;;;;;;0.40;0.40;;;;;;;23.84;45.62;95198.94;5012813;28;96759;-61
2021/09/08 06:38:12;;;;;;;0.50;0.50;;;;;;;23.81;45.49;95202.53;5013793;28;96697;-60
2021/09/08 06:40:37;;;;;;;0.40;0.40;;;;;;;23.81;45.77;95194.25;5012638;28;99059;-61
2021/09/08 06:43:02;;;;;;;0.40;0.40;;;;;;;23.86;45.54;95191.03;5013265;28;98625;-59
2021/09/08 06:45:28;;;;;;;0.40;0.40;;;;;;;23.83;45.62;95208.41;5013406;28;96681;-60
2021/09/08 06:47:53;;;;;;;0.40;0.40;;;;;;;23.86;45.60;95202.06;5013093;28;96893;-62
2021/09/08 06:50:19;;;;;;;0.50;0.50;;;;;;;23.85;45.67;95200.47;5012923;28;104164;-62
2021/09/08 06:52:44;;;;;;;0.40;0.40;;;;;;;23.86;45.68;95202.06;4994948;28;98753;-62
2021/09/08 06:55:10;;;;;;;0.50;0.50;;;;;;;23.87;45.81;95214.66;5013010;28;96798;-61
2021/09/08 06:57:35;;;;;;;0.43;0.43;;;;;;;23.89;45.49;95217.78;5013656;28;96985;-61
2021/09/08 07:00:00;;;;;;;0.50;0.50;;;;;;;23.86;45.68;95218.59;5011873;28;99347;-61
2021/09/08 07:02:26;;;;;;;0.50;0.50;;;;;;;23.84;45.72;95212.75;5012632;28;99508;-60
2021/09/08 07:04:52;;;;;;;0.40;0.40;;;;;;;23.84;45.90;95215.50;5011534;28;96716;-64
2021/09/08 07:07:20;;;;;;;1.40;1.30;;;;;;;23.86;44.90;95213.09;5011912;28;97786;-63
2021/09/08 07:09:45;;;;;;;1.90;1.80;;;;;;;23.81;44.18;95221.81;5012640;28;98210;-62
2021/09/08 07:12:11;;;;;;;1.80;1.70;;;;;;;23.81;44.17;95216.31;5012393;28;99282;-61
2021/09/08 07:14:36;;;;;;;1.75;1.65;;;;;;;23.80;44.17;95214.75;5012601;28;96647;-62
2021/09/08 07:17:02;;;;;;;1.58;1.48;;;;;;;23.80;44.21;95220.25;5012619;28;96845;-60
2021/09/08 07:19:27;;;;;;;1.65;1.55;;;;;;;23.76;43.85;95214.00;5012424;28;99206;-62
2021/09/08 07:21:53;;;;;;;1.90;1.70;;;;;;;23.87;43.75;95191.81;5010309;28;98983;-61
2021/09/08 07:24:18;;;;;;;3.35;3.00;;;;;;;23.78;43.85;95219.88;5010595;28;96894;-63
2021/09/08 07:26:44;;;;;;;3.33;3.03;;;;;;;23.58;44.36;95220.41;5011300;28;96886;-59
2021/09/08 07:29:09;;;;;;;2.95;2.75;;;;;;;23.50;44.42;95224.41;5010668;28;99639;-60
2021/09/08 07:31:35;;;;;;;2.45;2.20;;;;;;;23.42;44.96;95229.19;5010025;28;98804;-58
2021/09/08 07:34:00;;;;;;;2.30;2.10;;;;;;;23.37;44.95;95227.63;5009845;28;97299;-57
2021/09/08 07:36:25;;;;;;;2.00;1.90;;;;;;;23.36;45.17;95234.34;5011310;28;97372;-59
2021/09/08 07:38:51;;;;;;;1.70;1.60;;;;;;;23.34;45.49;95230.44;5010567;28;98004;-60
2021/09/08 07:41:17;;;;;;;1.70;1.60;;;;;;;23.29;45.63;95237.13;5009839;28;99436;-60
2021/09/08 07:43:43;;;;;;;1.42;1.33;;;;;;;23.27;45.52;95239.50;5010187;28;96764;-61
2021/09/08 07:46:08;;;;;;;1.10;1.10;;;;;;;23.28;45.72;95237.56;5010630;28;97160;-62
2021/09/08 07:48:33;;;;;;;0.93;0.93;;;;;;;23.29;45.57;95237.13;5009761;28;99450;-59
2021/09/08 07:50:59;;;;;;;1.23;1.13;;;;;;;23.31;45.65;95245.78;5010558;28;99488;-61
2021/09/08 07:53:24;;;;;;;0.90;0.90;;;;;;;23.32;45.72;95230.81;5011252;28;97123;-60
2021/09/08 07:55:50;;;;;;;0.77;0.77;;;;;;;23.31;45.69;95236.75;5012633;28;96863;-60
2021/09/08 07:58:15;;;;;;;0.80;0.80;;;;;;;23.33;45.96;95237.13;5012119;28;104573;-62
2021/09/08 08:00:41;;;;;;;0.73;0.73;;;;;;;23.32;45.79;95235.56;5012010;28;104377;-61
2021/09/08 08:03:06;;;;;;;0.90;0.90;;;;;;;23.30;46.01;95237.94;5012480;28;96589;-62
2021/09/08 08:05:32;;;;;;;0.80;0.80;;;;;;;23.32;45.82;95236.34;5012307;28;96926;-61
2021/09/08 08:07:57;;;;;;;0.63;0.63;;;;;;;23.35;45.99;95235.53;5011871;28;99657;-60
2021/09/08 08:10:23;;;;;;;0.70;0.70;;;;;;;23.35;46.04;95232.00;5012159;28;99262;-61
2021/09/08 08:12:48;;;;;;;0.60;0.60;;;;;;;23.27;46.14;95211.94;5014649;28;96750;-61
2021/09/08 08:15:14;;;;;;;0.80;0.80;;;;;;;23.38;46.08;95228.44;5015788;28;97020;-62
2021/09/08 08:17:40;;;;;;;0.50;0.50;;;;;;;23.37;45.98;95227.63;5014851;28;99727;-60
2021/09/08 08:20:08;;;;;;;0.65;0.65;;;;;;;23.41;46.03;95222.13;5015291;28;99628;-61
2021/09/08 08:22:37;;;;;;;0.50;0.50;;;;;;;23.37;46.07;95224.88;5015885;28;97028;-62
2021/09/08 08:25:03;;;;;;;0.50;0.50;;;;;;;23.37;46.12;95226.88;5015620;28;96934;-59
2021/09/08 08:27:29;;;;;;;0.40;0.40;;;;;;;23.39;46.44;95225.25;5015115;28;99704;-60
2021/09/08 08:29:54;;;;;;;0.60;0.60;;;;;;;23.39;46.30;95225.25;5015593;28;98352;-60
2021/09/08 08:32:20;;;;;;;0.50;0.50;;;;;;;23.41;46.45;95221.31;5015209;28;97693;-60
2021/09/08 08:34:45;;;;;;;0.40;0.40;;;;;;;23.40;46.35;95226.06;5016141;28;96703;-60
2021/09/08 08:37:10;;;;;;;0.40;0.40;;;;;;;23.39;46.33;95230.78;5014124;28;104368;-59
2021/09/08 08:39:38;;;;;;;0.50;0.50;;;;;;;23.42;46.58;95228.41;5014658;28;102275;-59
2021/09/08 08:42:06;;;;;;;0.50;0.47;;;;;;;23.43;46.61;95236.28;5014756;28;96713;-60
2021/09/08 08:44:31;;;;;;;0.45;0.45;;;;;;;23.47;46.59;95230.72;5015274;28;96940;-59
2021/09/08 08:46:57;;;;;;;0.50;0.50;;;;;;;23.45;46.65;95222.09;5014995;28;99279;-59
2021/09/08 08:49:22;;;;;;;0.50;0.50;;;;;;;23.45;46.57;95233.09;4980512;28;98478;-58
2021/09/08 08:51:48;;;;;;;0.52;0.52;;;;;;;23.44;46.78;95221.31;4997242;28;96704;-57
2021/09/08 08:54:14;;;;;;;0.50;0.50;;;;;;;23.46;46.84;95223.66;5015393;28;96883;-58
2021/09/08 08:56:39;;;;;;;0.47;0.47;;;;;;;23.37;46.76;95200.06;4996381;28;106236;-58
2021/09/08 08:59:04;;;;;;;0.50;0.50;;;;;;;23.50;46.90;95205.13;5015272;28;99721;-59
2021/09/08 09:01:31;;;;;;;0.32;0.32;;;;;;;23.50;46.97;95210.63;4997604;28;96637;-59
2021/09/08 09:04:10;;;;;;;2.00;0.50;;;;;;;23.52;46.87;95205.50;5015098;28;96787;-60
2021/09/08 09:06:41;;;;;;;1.45;0.60;;;;;;;23.45;47.07;95200.03;5014235;28;99732;-59
2021/09/08 09:09:11;;;;;;;0.30;0.30;;;;;;;23.54;47.11;95209.44;5014629;28;99307;-59
2021/09/08 09:11:36;;;;;;;0.40;0.40;;;;;;;23.54;46.78;95211.38;5015181;28;96685;-60
2021/09/08 09:14:04;;;;;;;0.30;0.30;;;;;;;23.58;46.91;95201.13;5014850;28;96946;-60
2021/09/08 09:16:29;;;;;;;0.40;0.40;;;;;;;23.58;46.60;95201.13;5014518;28;100046;-60
2021/09/08 09:18:55;;;;;;;0.40;0.40;;;;;;;23.62;46.81;95193.59;5014481;28;99689;-62
2021/09/08 09:21:22;;;;;;;0.40;0.40;;;;;;;23.67;46.78;95195.94;5014818;28;96579;-61
2021/09/08 09:23:50;;;;;;;0.60;0.60;;;;;;;23.73;46.73;95181.72;4996282;28;96978;-62
2021/09/08 09:26:28;;;;;;;0.50;0.50;;;;;;;23.72;46.82;95196.69;5014290;28;99681;-61
2021/09/08 09:28:54;;;;;;;0.45;0.45;;;;;;;23.77;46.85;95183.22;5014535;28;99256;-61
2021/09/08 09:31:21;;;;;;;0.40;0.40;;;;;;;23.76;46.66;95175.38;5014050;28;96802;-62
2021/09/08 09:33:51;;;;;;;0.40;0.40;;;;;;;23.80;46.63;95178.88;5014537;28;96899;-61
2021/09/08 09:36:22;;;;;;;0.30;0.30;;;;;;;23.84;46.65;95176.88;5013157;28;99734;-61
2021/09/08 09:38:48;;;;;;;0.43;0.43;;;;;;;23.85;46.45;95161.88;5014106;28;99409;-63
2021/09/08 09:41:16;;;;;;;0.30;0.30;;;;;;;23.88;46.37;95155.53;5014362;28;96700;-63
2021/09/08 09:43:42;;;;;;;0.45;0.45;;;;;;;23.92;46.56;95166.56;5014364;28;96911;-61
2021/09/08 09:46:08;;;;;;;0.40;0.40;;;;;;;23.95;46.40;95154.69;5014029;28;99341;-60
2021/09/08 09:48:33;;;;;;;0.30;0.30;;;;;;;23.97;46.64;95164.13;5014250;28;99359;-60
2021/09/08 09:51:03;;;;;;;0.30;0.30;;;;;;;24.03;46.24;95167.25;5014579;28;96687;-61
2021/09/08 09:53:30;;;;;;;0.30;0.30;;;;;;;24.03;46.17;95160.94;5014436;28;96908;-61
2021/09/08 09:55:55;;;;;;;0.40;0.40;;;;;;;24.04;46.62;95159.75;5013400;28;99438;-60
2021/09/08 09:58:21;;;;;;;0.35;0.35;;;;;;;24.06;46.19;95157.38;5013637;28;102496;-59
2021/09/08 10:00:47;;;;;;;0.30;0.30;;;;;;;24.10;46.19;95171.91;4979374;28;96843;-58
2021/09/08 10:03:12;;;;;;;0.40;0.40;;;;;;;24.12;46.21;95164.00;4979399;28;96915;-58
2021/09/08 10:05:37;;;;;;;0.40;0.40;;;;;;;24.14;46.40;95158.88;4995732;28;99620;-57
2021/09/08 10:08:03;;;;;;;0.40;0.40;;;;;;;24.15;46.24;95165.94;4995857;28;99229;-58
2021/09/08 10:10:30;;;;;;;0.28;0.28;;;;;;;24.18;46.52;95156.84;4996214;28;96872;-60
2021/09/08 10:13:02;;;;;;;0.40;0.40;;;;;;;24.19;46.42;95152.09;4996389;28;96959;-59
2021/09/08 10:15:27;;;;;;;0.30;0.30;;;;;;;24.21;46.42;95156.03;4979925;28;99988;-59
2021/09/08 10:17:53;;;;;;;1.20;0.30;;;;;;;24.24;46.13;95155.22;4995478;28;99830;-59
2021/09/08 10:20:20;;;;;;;0.32;0.32;;;;;;;24.28;46.19;95152.41;5013316;28;96857;-59
2021/09/08 10:22:46;;;;;;;0.32;0.32;;;;;;;24.27;46.22;95157.16;5014063;28;97403;-59
2021/09/08 10:25:17;;;;;;;0.25;0.25;;;;;;;24.32;45.88;95155.91;5013403;28;99460;-59
2021/09/08 10:27:43;;;;;;;0.25;0.25;;;;;;;24.34;46.30;95155.50;5013323;28;99084;-59
2021/09/08 10:30:09;;;;;;;0.90;0.30;;;;;;;24.37;46.26;95160.19;4995710;28;96873;-59
2021/09/08 10:32:35;;;;;;;0.30;0.30;;;;;;;24.40;46.24;95156.63;5013310;28;96905;-59
2021/09/08 10:35:09;;;;;;;0.40;0.40;;;;;;;24.41;46.04;95160.94;5013242;28;99522;-60
2021/09/08 10:37:35;;;;;;;0.20;0.20;;;;;;;24.39;46.09;95155.81;4995438;28;99133;-59
2021/09/08 10:40:00;;;;;;;0.22;0.22;;;;;;;24.42;45.97;95159.75;4978979;28;96795;-59
2021/09/08 10:43:04;;;;;;;0.30;0.30;;;;;;;24.48;46.37;95157.31;4979014;28;96945;-59
2021/09/08 10:45:31;;;;;;;0.28;0.28;;;;;;;24.42;46.03;95151.47;4911840;28;99444;-60
2021/09/08 10:47:58;;;;;;;0.40;0.40;;;;;;;24.44;46.02;95168.38;4912935;28;99130;-59
2021/09/08 10:50:44;;;;;;;0.30;0.30;;;;;;;24.45;46.22;95163.66;4977532;28;96718;-57
2021/09/08 10:53:15;;;;;;;0.30;0.30;;;;;;;24.41;46.31;95158.19;5013740;28;96956;-59
2021/09/08 10:55:44;;;;;;;0.20;0.20;;;;;;;24.41;46.45;95166.47;5013885;28;99513;-59
2021/09/08 10:58:10;;;;;;;0.30;0.30;;;;;;;24.47;46.35;95167.56;5013768;28;99623;-60
2021/09/08 11:00:40;;;;;;;0.30;0.30;;;;;;;24.45;46.39;95167.19;5015117;28;96698;-60
2021/09/08 11:03:16;;;;;;;0.25;0.25;;;;;;;24.48;46.18;95162.81;5014259;28;96820;-60
2021/09/08 11:05:48;;;;;;;0.65;0.22;;;;;;;24.46;46.00;95163.22;4996428;28;99826;-58
2021/09/08 11:08:29;;;;;;;0.20;0.20;;;;;;;24.46;46.08;95160.47;5013500;28;99558;-57
2021/09/08 11:11:15;;;;;;;0.20;0.20;;;;;;;24.49;46.02;95165.16;5013364;28;96718;-59
2021/09/08 11:13:41;;;;;;;0.40;0.40;;;;;;;24.53;46.34;95154.84;5014210;28;96516;-58
2021/09/08 11:16:29;;;;;;;0.30;0.30;;;;;;;24.57;45.98;95152.06;5013610;28;97069;-58
2021/09/08 11:18:56;;;;;;;0.20;0.20;;;;;;;24.57;45.92;95150.06;5013766;28;99410;-60
2021/09/08 11:21:28;;;;;;;0.35;0.30;;;;;;;24.60;46.18;95154.00;5013999;28;96713;-60
2021/09/08 11:24:06;;;;;;;0.20;0.20;;;;;;;24.60;46.32;95153.22;4996258;28;96831;-59
2021/09/08 11:26:32;;;;;;;0.40;0.40;;;;;;;24.55;46.25;95138.66;5013471;28;99862;-59
2021/09/08 11:29:05;;;;;;;0.20;0.20;;;;;;;24.56;46.47;95151.28;4995329;28;99707;-58